Time;durP1;ratioP1;P1;durP2;ratioP2;P2;SDS_P1;SDS_P2;PMS_P1;PMS_P2;Temp;Humidity;BMP_temperature;BMP_pressure;BME280_temperature;BME280_humidity;BME280_pressure;Samples;Min_cycle;Max_cycle;Signal;HPM_P1;HPM_P2
2023/04/11 00:00:45;;;;;;;53.70;5.60;;;;;;;8.47;100.00;100752.19;5066565;28;20513;-47
2023/04/11 00:03:10;;;;;;;59.42;4.68;;;;;;;8.46;100.00;100753.22;5077467;28;20055;-49
2023/04/11 00:05:36;;;;;;;49.65;4.68;;;;;;;8.45;100.00;100767.66;5076910;28;20115;-49
2023/04/11 00:08:01;;;;;;;53.95;4.85;;;;;;;8.42;100.00;100761.78;5065845;28;20044;-48
2023/04/11 00:10:26;;;;;;;65.65;4.40;;;;;;;8.42;100.00;100759.91;5064542;28;20120;-49
2023/04/11 00:12:55;;;;;;;59.13;4.70;;;;;;;8.46;100.00;100771.16;5071539;28;20027;-48
2023/04/11 00:15:22;;;;;;;68.43;5.93;;;;;;;8.45;100.00;100770.34;5080979;28;20029;-47
2023/04/11 00:17:48;;;;;;;52.42;4.03;;;;;;;8.43;100.00;100783.06;5078066;28;20093;-48
2023/04/11 00:20:13;;;;;;;70.65;4.90;;;;;;;8.45;100.00;100777.50;5078645;28;20466;-48
2023/04/11 00:22:39;;;;;;;65.13;5.45;;;;;;;8.45;100.00;100786.44;5070263;28;20020;-46
2023/04/11 00:25:05;;;;;;;47.22;4.22;;;;;;;8.42;100.00;100781.38;5071468;28;20040;-47
2023/04/11 00:27:31;;;;;;;50.08;3.63;;;;;;;8.45;100.00;100774.84;5078813;28;20364;-49
2023/04/11 00:29:56;;;;;;;56.63;3.83;;;;;;;8.48;100.00;100775.34;5077400;28;20060;-48
2023/04/11 00:32:25;;;;;;;50.08;4.07;;;;;;;8.49;100.00;100752.88;5076638;28;20028;-48
2023/04/11 00:34:51;;;;;;;45.78;3.85;;;;;;;8.53;100.00;100769.47;5079659;28;20033;-48
2023/04/11 00:37:20;;;;;;;50.60;4.38;;;;;;;8.54;100.00;100769.28;5083889;28;20461;-46
2023/04/11 00:39:51;;;;;;;45.38;2.55;;;;;;;8.55;100.00;100775.50;5080437;28;20098;-49
2023/04/11 00:42:18;;;;;;;37.15;2.92;;;;;;;8.59;100.00;100768.78;5079910;28;20031;-49
2023/04/11 00:44:43;;;;;;;49.38;3.25;;;;;;;8.61;100.00;100763.25;5064450;28;20068;-50
2023/04/11 00:47:09;;;;;;;47.50;4.15;;;;;;;8.61;100.00;100769.47;5063921;28;20665;-46
2023/04/11 00:49:35;;;;;;;35.13;3.05;;;;;;;8.63;100.00;100771.97;5079068;28;20067;-48
2023/04/11 00:52:01;;;;;;;47.38;3.50;;;;;;;8.62;100.00;100776.50;5083135;28;20071;-48
2023/04/11 00:54:28;;;;;;;45.28;4.25;;;;;;;8.60;100.00;100775.81;5063674;28;20045;-49
2023/04/11 00:57:03;;;;;;;66.85;5.47;;;;;;;8.61;100.00;100776.66;5068294;28;20101;-48
2023/04/11 00:59:30;;;;;;;49.83;3.88;;;;;;;8.63;100.00;100769.28;5081704;28;20028;-49
2023/04/11 01:01:56;;;;;;;51.13;3.80;;;;;;;8.62;100.00;100767.63;5065674;28;20063;-48
2023/04/11 01:04:22;;;;;;;40.67;5.00;;;;;;;8.64;100.00;100765.59;5069121;28;20025;-46
2023/04/11 01:06:51;;;;;;;39.22;3.10;;;;;;;8.64;100.00;100763.75;5066125;28;20029;-48
2023/04/11 01:09:19;;;;;;;40.47;3.28;;;;;;;8.66;100.00;100774.28;5072212;28;20029;-49
2023/04/11 01:11:44;;;;;;;35.22;3.08;;;;;;;8.69;100.00;100771.25;5062294;28;20362;-46
2023/04/11 01:14:10;;;;;;;23.45;2.50;;;;;;;8.63;100.00;100770.09;5067365;28;20033;-49
2023/04/11 01:16:35;;;;;;;39.25;3.25;;;;;;;8.63;100.00;100772.78;5062025;28;20041;-49
2023/04/11 01:19:01;;;;;;;35.90;3.95;;;;;;;8.64;100.00;100781.69;5064368;28;20103;-48
2023/04/11 01:21:27;;;;;;;32.22;3.10;;;;;;;8.59;100.00;100784.06;5067548;28;20033;-47
2023/04/11 01:23:53;;;;;;;33.20;3.40;;;;;;;8.49;100.00;100768.13;5071039;28;20491;-49
2023/04/11 01:26:18;;;;;;;50.40;3.42;;;;;;;8.47;100.00;100775.50;5055799;28;20041;-47
2023/04/11 01:28:44;;;;;;;30.15;3.63;;;;;;;8.43;100.00;100775.03;5057879;28;20066;-49
2023/04/11 01:31:09;;;;;;;38.20;4.13;;;;;;;8.42;100.00;100784.06;5065864;28;20024;-47
2023/04/11 01:33:35;;;;;;;57.78;3.97;;;;;;;8.39;100.00;100784.41;5066928;28;20024;-47
2023/04/11 01:36:00;;;;;;;47.05;3.67;;;;;;;8.36;100.00;100782.84;5065007;28;20036;-48
2023/04/11 01:38:26;;;;;;;42.90;3.90;;;;;;;8.32;100.00;100786.91;5069582;28;20025;-48
2023/04/11 01:40:51;;;;;;;33.70;2.60;;;;;;;8.28;100.00;100792.75;5072977;28;20060;-47
2023/04/11 01:43:17;;;;;;;32.03;2.83;;;;;;;8.24;100.00;100796.78;5066959;28;20449;-47
2023/04/11 01:45:42;;;;;;;32.97;3.20;;;;;;;8.27;100.00;100796.47;5063025;28;20036;-48
2023/04/11 01:48:07;;;;;;;33.13;2.72;;;;;;;8.27;100.00;100786.56;5064192;28;20437;-47
2023/04/11 01:50:33;;;;;;;42.15;2.88;;;;;;;8.25;100.00;100811.88;5064922;28;20040;-47
2023/04/11 01:52:58;;;;;;;42.95;3.25;;;;;;;8.27;100.00;100807.19;5064536;28;20037;-51
2023/04/11 01:55:24;;;;;;;44.92;3.83;;;;;;;8.28;100.00;100798.13;5072147;28;20560;-48
2023/04/11 01:57:49;;;;;;;56.35;4.05;;;;;;;8.31;100.00;100808.50;5071398;28;20032;-48
2023/04/11 02:00:15;;;;;;;61.40;4.32;;;;;;;8.34;100.00;100818.91;5072790;28;20056;-48
2023/04/11 02:02:41;;;;;;;36.03;3.65;;;;;;;8.37;100.00;100818.56;5073673;28;20518;-47
2023/04/11 02:05:06;;;;;;;51.33;3.67;;;;;;;8.39;100.00;100826.44;5073571;28;20115;-49
2023/04/11 02:07:32;;;;;;;49.97;4.18;;;;;;;8.39;100.00;100827.31;5070451;28;20037;-50
2023/04/11 02:09:57;;;;;;;59.60;4.55;;;;;;;8.41;100.00;100825.31;5065622;28;20041;-50
2023/04/11 02:12:23;;;;;;;39.95;2.58;;;;;;;8.41;100.00;100836.03;5063966;28;20032;-49
2023/04/11 02:14:48;;;;;;;64.68;3.85;;;;;;;8.38;100.00;100844.38;5061326;28;20507;-48
2023/04/11 02:17:17;;;;;;;72.95;4.70;;;;;;;8.35;100.00;100852.78;5062573;28;20032;-48
2023/04/11 02:19:44;;;;;;;;;;;;;;;8.32;100.00;100837.00;5060882;28;20029;-47
2023/04/11 02:22:12;;;;;;;45.40;3.23;;;;;;;8.29;100.00;100840.00;5066686;28;20270;-49
2023/04/11 02:24:37;;;;;;;42.38;2.88;;;;;;;8.27;100.00;100834.00;5063043;28;20385;-48
2023/04/11 02:27:03;;;;;;;49.95;2.85;;;;;;;8.19;100.00;100837.50;5060098;28;20388;-48
2023/04/11 02:29:28;;;;;;;45.33;2.60;;;;;;;8.17;100.00;100850.25;5059965;28;20017;-47
2023/04/11 02:31:54;;;;;;;41.72;2.97;;;;;;;8.11;100.00;100834.81;5064986;28;20032;-47
2023/04/11 02:34:19;;;;;;;64.57;4.18;;;;;;;8.04;100.00;100842.69;5062348;28;20370;-50
2023/04/11 02:36:45;;;;;;;57.28;4.20;;;;;;;8.01;100.00;100850.22;5059867;28;20410;-48
2023/04/11 02:39:11;;;;;;;48.95;4.65;;;;;;;7.96;100.00;100856.06;5068705;28;20028;-48
2023/04/11 02:41:40;;;;;;;45.35;4.22;;;;;;;7.90;100.00;100840.66;5063533;28;20108;-49
2023/04/11 02:44:05;;;;;;;45.30;4.13;;;;;;;7.87;100.00;100859.72;5065773;28;20044;-48
2023/04/11 02:46:31;;;;;;;56.47;4.63;;;;;;;7.84;100.00;100860.03;5064232;28;20025;-49
2023/04/11 02:48:56;;;;;;;55.38;3.80;;;;;;;7.83;100.00;100863.75;5063492;28;20469;-49
2023/04/11 02:51:21;;;;;;;45.75;3.83;;;;;;;7.79;100.00;100862.38;5071079;28;20053;-47
2023/04/11 02:53:47;;;;;;;47.55;3.25;;;;;;;7.77;100.00;100867.91;5068028;28;20408;-48
2023/04/11 02:56:17;;;;;;;45.63;4.85;;;;;;;7.76;100.00;100862.72;5061871;28;20028;-47
2023/04/11 02:58:44;;;;;;;50.22;3.90;;;;;;;7.73;100.00;100863.03;5063858;28;20029;-47
2023/04/11 03:01:10;;;;;;;51.60;3.65;;;;;;;7.72;100.00;100870.25;5061572;28;20078;-49
2023/04/11 03:03:37;;;;;;;52.92;4.03;;;;;;;7.73;100.00;100873.75;5071402;28;20113;-48
2023/04/11 03:06:03;;;;;;;49.92;3.55;;;;;;;7.71;100.00;100876.59;5060845;28;20039;-48
2023/04/11 03:08:28;;;;;;;55.92;3.58;;;;;;;7.72;100.00;100861.38;5058328;28;20029;-46
2023/04/11 03:10:54;;;;;;;38.20;3.50;;;;;;;7.72;100.00;100867.56;5057329;28;20365;-50
2023/04/11 03:13:19;;;;;;;43.90;4.32;;;;;;;7.74;100.00;100875.41;5050972;28;20041;-48
2023/04/11 03:15:44;;;;;;;38.40;3.95;;;;;;;7.74;100.00;100870.06;5052649;28;20408;-49
2023/04/11 03:18:10;;;;;;;43.22;4.05;;;;;;;7.69;100.00;100868.72;5053101;28;20454;-48
2023/04/11 03:20:35;;;;;;;35.45;3.83;;;;;;;7.66;100.00;100871.75;5052645;28;20542;-48
2023/04/11 03:23:00;;;;;;;29.05;2.47;;;;;;;7.68;100.00;100861.69;5052548;28;20057;-51
2023/04/11 03:25:27;;;;;;;29.48;3.75;;;;;;;7.64;100.00;100876.41;5054732;28;20513;-48
2023/04/11 03:27:52;;;;;;;37.05;2.53;;;;;;;7.62;100.00;100883.75;5058141;28;20079;-49
2023/04/11 03:30:17;;;;;;;46.38;3.72;;;;;;;7.61;100.00;100891.94;5067116;28;20045;-47
2023/04/11 03:32:43;;;;;;;27.85;2.42;;;;;;;7.62;100.00;100874.91;5071369;28;20111;-50
2023/04/11 03:35:09;;;;;;;30.15;2.75;;;;;;;7.60;100.00;100887.59;5061872;28;20033;-49
2023/04/11 03:37:35;;;;;;;32.72;2.60;;;;;;;7.58;100.00;100887.78;5064194;28;20107;-50
2023/04/11 03:40:01;;;;;;;37.25;2.88;;;;;;;7.56;100.00;100888.94;5070070;28;20111;-48
2023/04/11 03:42:26;;;;;;;32.33;2.63;;;;;;;7.53;100.00;100881.22;5065011;28;20062;-49
2023/04/11 03:44:51;;;;;;;24.27;2.20;;;;;;;7.52;100.00;100890.25;5063480;28;20505;-50
2023/04/11 03:47:17;;;;;;;33.65;2.63;;;;;;;7.47;100.00;100871.97;5059561;28;20025;-49
2023/04/11 03:49:42;;;;;;;25.23;2.55;;;;;;;7.52;100.00;100887.56;5060245;28;20103;-47
2023/04/11 03:52:08;;;;;;;24.50;3.17;;;;;;;7.49;100.00;100894.09;5053694;28;20087;-48
2023/04/11 03:54:34;;;;;;;33.58;2.50;;;;;;;7.46;100.00;100900.59;5064053;28;20124;-49
2023/04/11 03:56:59;;;;;;;24.55;2.90;;;;;;;7.41;100.00;100902.09;5057938;28;20497;-48
2023/04/11 03:59:25;;;;;;;30.00;3.03;;;;;;;7.40;100.00;100911.13;5061738;28;20060;-49
2023/04/11 04:01:50;;;;;;;33.40;4.13;;;;;;;7.38;100.00;100908.59;5067710;28;20025;-49
2023/04/11 04:04:16;;;;;;;36.53;2.90;;;;;;;7.36;100.00;100917.78;5071402;28;20603;-48
2023/04/11 04:06:41;;;;;;;42.08;3.85;;;;;;;7.33;100.00;100920.78;5070645;28;20090;-48
2023/04/11 04:09:07;;;;;;;46.08;3.13;;;;;;;7.31;100.00;100922.78;5062901;28;20029;-49
2023/04/11 04:11:32;;;;;;;36.53;2.92;;;;;;;7.31;100.00;100918.25;5071227;28;20660;-47
2023/04/11 04:13:57;;;;;;;25.52;2.13;;;;;;;7.31;100.00;100917.44;5070078;28;20487;-46
2023/04/11 04:16:23;;;;;;;29.60;1.88;;;;;;;7.33;100.00;100926.16;5053923;28;20108;-47
2023/04/11 04:18:48;;;;;;;32.08;2.78;;;;;;;7.32;100.00;100919.09;5070098;28;20020;-47
2023/04/11 04:21:14;;;;;;;29.90;3.22;;;;;;;7.33;100.00;100920.78;5068439;28;20428;-51
2023/04/11 04:23:46;;;;;;;43.35;3.30;;;;;;;7.31;100.00;100923.63;5071728;28;20029;-47
2023/04/11 04:26:14;;;;;;;24.23;2.67;;;;;;;7.31;100.00;100942.34;5069460;28;20028;-48
2023/04/11 04:28:46;;;;;;;33.33;3.00;;;;;;;7.31;100.00;100949.56;5068947;28;20038;-48
2023/04/11 04:31:13;;;;;;;36.17;3.55;;;;;;;7.30;100.00;100942.53;5066504;28;20040;-48
2023/04/11 04:33:41;;;;;;;22.87;2.57;;;;;;;7.27;100.00;100946.34;5062943;28;20032;-49
2023/04/11 04:36:08;;;;;;;44.65;4.65;;;;;;;7.24;100.00;100942.16;5060461;28;20025;-47
2023/04/11 04:38:37;;;;;;;26.70;2.28;;;;;;;7.26;100.00;100947.34;5064380;28;20032;-49
2023/04/11 04:41:04;;;;;;;24.73;2.88;;;;;;;7.28;100.00;100949.88;5067918;28;20040;-49
2023/04/11 04:43:31;;;;;;;35.33;2.58;;;;;;;7.24;100.00;100954.69;5064631;28;20056;-47
2023/04/11 04:45:56;;;;;;;34.50;2.55;;;;;;;7.30;100.00;100967.47;5055695;28;20100;-47
2023/04/11 04:48:24;;;;;;;33.30;2.95;;;;;;;7.37;100.00;100965.84;5060665;28;20140;-50
2023/04/11 04:50:49;;;;;;;47.78;4.88;;;;;;;7.43;100.00;100969.72;5055118;28;20096;-48
2023/04/11 04:53:14;;;;;;;28.15;3.30;;;;;;;7.50;100.00;100975.25;5061960;28;20029;-48
2023/04/11 04:55:40;;;;;;;45.75;5.05;;;;;;;7.54;100.00;100977.47;5054760;28;20025;-48
2023/04/11 04:58:05;;;;;;;29.90;2.70;;;;;;;7.59;100.00;100980.50;5059307;28;20100;-49
2023/04/11 05:00:32;;;;;;;28.50;2.78;;;;;;;7.59;100.00;100983.19;5059788;28;20454;-49
2023/04/11 05:02:57;;;;;;;50.10;3.20;;;;;;;7.61;100.00;100989.25;5060371;28;20051;-51
2023/04/11 05:05:23;;;;;;;37.78;2.42;;;;;;;7.66;100.00;100984.25;5061973;28;20149;-47
2023/04/11 05:07:48;;;;;;;37.35;3.08;;;;;;;7.69;100.00;100978.56;5058441;28;20033;-46
2023/04/11 05:10:13;;;;;;;25.70;2.75;;;;;;;7.74;100.00;100987.94;5058446;28;20056;-48
2023/04/11 05:12:39;;;;;;;40.65;3.47;;;;;;;7.75;100.00;100995.00;5072787;28;20174;-50
2023/04/11 05:15:10;;;;;;;35.40;3.28;;;;;;;7.74;100.00;100993.31;5067370;28;20033;-48
2023/04/11 05:17:35;;;;;;;36.72;3.15;;;;;;;7.73;100.00;100991.63;5067315;28;20028;-50
2023/04/11 05:20:01;;;;;;;47.97;3.90;;;;;;;7.73;100.00;101011.22;5068757;28;20029;-50
2023/04/11 05:22:26;;;;;;;55.35;5.40;;;;;;;7.73;100.00;101010.38;5069778;28;20089;-49
2023/04/11 05:24:51;;;;;;;42.20;3.22;;;;;;;7.73;100.00;101013.06;5060695;28;20555;-49
2023/04/11 05:27:17;;;;;;;31.20;3.47;;;;;;;7.75;100.00;101011.91;5055241;28;20052;-47
2023/04/11 05:29:42;;;;;;;40.20;4.07;;;;;;;7.73;100.00;101016.56;5057455;28;20057;-48
2023/04/11 05:32:08;;;;;;;44.00;3.05;;;;;;;7.80;100.00;101017.63;5064104;28;20029;-49
2023/04/11 05:34:49;;;;;;;35.03;4.07;;;;;;;7.97;100.00;101010.50;5067809;28;20036;-48
2023/04/11 05:37:15;;;;;;;49.03;5.03;;;;;;;8.27;100.00;101019.00;5074521;28;20027;-47
2023/04/11 05:39:40;;;;;;;50.03;4.20;;;;;;;8.55;100.00;101009.72;5070849;28;20111;-47
2023/04/11 05:42:05;;;;;;;38.55;3.63;;;;;;;8.89;100.00;101016.81;5055767;28;20028;-47
2023/04/11 05:44:31;;;;;;;36.17;3.20;;;;;;;9.19;100.00;101006.44;5058324;28;20071;-47
2023/04/11 05:46:56;;;;;;;42.15;5.50;;;;;;;9.56;100.00;101008.56;5064948;28;20032;-50
2023/04/11 05:49:21;;;;;;;37.35;5.28;;;;;;;9.98;100.00;101007.41;5072226;28;20040;-48
2023/04/11 05:51:47;;;;;;;49.58;4.18;;;;;;;10.11;100.00;101014.94;5063757;28;20025;-47
2023/04/11 05:54:29;;;;;;;33.30;3.85;;;;;;;10.26;100.00;101015.84;5073693;28;20053;-48
2023/04/11 05:56:55;;;;;;;35.05;4.25;;;;;;;10.67;100.00;101018.34;5066376;28;20041;-48
2023/04/11 05:59:22;;;;;;;42.80;3.55;;;;;;;10.68;100.00;101020.00;5059741;28;20028;-48
2023/04/11 06:01:49;;;;;;;40.15;3.65;;;;;;;10.89;100.00;101021.22;5053438;28;20033;-48
2023/04/11 06:04:15;;;;;;;39.17;4.00;;;;;;;10.97;100.00;101023.84;5053853;28;20036;-47
2023/04/11 06:06:42;;;;;;;44.85;3.28;;;;;;;11.12;100.00;101032.00;5061873;28;20024;-48
2023/04/11 06:09:08;;;;;;;40.63;4.72;;;;;;;10.99;100.00;101032.59;5061097;28;20033;-50
2023/04/11 06:11:34;;;;;;;34.17;3.03;;;;;;;11.12;100.00;101032.81;5058973;28;20040;-47
2023/04/11 06:13:59;;;;;;;41.30;3.40;;;;;;;11.36;100.00;101025.56;5057158;28;20028;-48
2023/04/11 06:16:25;;;;;;;46.55;4.00;;;;;;;11.37;100.00;101033.47;5071693;28;20017;-49
2023/04/11 06:18:50;;;;;;;40.22;4.22;;;;;;;11.07;100.00;101035.22;5071102;28;20027;-50
2023/04/11 06:21:15;;;;;;;39.22;4.13;;;;;;;10.94;100.00;101035.81;5073267;28;20385;-48
2023/04/11 06:23:41;;;;;;;39.72;3.63;;;;;;;10.82;100.00;101044.50;5073665;28;20059;-49
2023/04/11 06:26:06;;;;;;;34.10;4.00;;;;;;;10.53;100.00;101043.31;5071648;28;20050;-49
2023/04/11 06:28:32;;;;;;;35.03;3.67;;;;;;;10.35;100.00;101035.53;5067792;28;20029;-47
2023/04/11 06:30:58;;;;;;;36.78;2.88;;;;;;;10.01;100.00;101050.09;5064485;28;20343;-48
2023/04/11 06:33:23;;;;;;;37.20;4.15;;;;;;;9.81;100.00;101038.88;5070800;28;20071;-49
2023/04/11 06:35:49;;;;;;;48.95;5.18;;;;;;;9.61;100.00;101048.31;5065753;28;20854;-51
2023/04/11 06:38:14;;;;;;;38.45;3.55;;;;;;;9.76;100.00;101051.16;5065736;28;20021;-49
2023/04/11 06:40:39;;;;;;;29.33;2.95;;;;;;;9.76;100.00;101060.06;5067877;28;20031;-49
2023/04/11 06:43:05;;;;;;;35.00;3.83;;;;;;;9.94;100.00;101051.78;5065918;28;20029;-49
2023/04/11 06:45:30;;;;;;;35.63;3.42;;;;;;;10.50;100.00;101054.44;5054252;28;20031;-48
2023/04/11 06:47:55;;;;;;;40.47;3.65;;;;;;;11.11;100.00;101060.78;5058953;28;20117;-54
2023/04/11 06:50:21;;;;;;;43.55;3.72;;;;;;;12.03;100.00;101057.94;5064131;28;20075;-51
2023/04/11 06:52:46;;;;;;;27.17;2.80;;;;;;;12.35;100.00;101071.19;5070708;28;20043;-49
2023/04/11 06:55:14;;;;;;;41.53;3.95;;;;;;;13.04;100.00;101073.47;5070594;28;20040;-49
2023/04/11 06:57:39;;;;;;;28.67;3.63;;;;;;;13.73;100.00;101070.94;5069854;28;20021;-50
2023/04/11 07:00:06;;;;;;;45.42;3.45;;;;;;;13.80;96.22;101077.25;5068984;28;20131;-50
2023/04/11 07:02:34;;;;;;;29.95;3.35;;;;;;;14.01;93.52;101079.06;5070925;28;20040;-50
2023/04/11 07:05:00;;;;;;;33.15;3.30;;;;;;;14.16;90.36;101087.03;5066262;28;20461;-51
2023/04/11 07:07:26;;;;;;;36.22;4.10;;;;;;;14.50;91.17;101093.47;5069229;28;20041;-50
2023/04/11 07:09:51;;;;;;;36.20;4.40;;;;;;;14.57;87.73;101083.53;5070133;28;20086;-48
2023/04/11 07:12:17;;;;;;;32.92;3.45;;;;;;;14.86;89.09;101095.09;5066634;28;20478;-49
2023/04/11 07:14:42;;;;;;;41.00;4.65;;;;;;;14.87;87.14;101094.88;5059973;28;20085;-52
2023/04/11 07:17:08;;;;;;;23.77;3.13;;;;;;;15.18;85.46;101093.50;5066442;28;20111;-47
2023/04/11 07:19:33;;;;;;;36.13;4.03;;;;;;;15.40;83.59;101098.72;5065443;28;20036;-47
2023/04/11 07:21:59;;;;;;;32.22;3.90;;;;;;;15.85;81.49;101107.09;5063221;28;20044;-46
2023/04/11 07:24:24;;;;;;;37.72;3.40;;;;;;;16.04;81.34;101110.84;5054638;28;20036;-49
2023/04/11 07:26:52;;;;;;;32.03;4.00;;;;;;;15.50;82.42;101118.97;5059993;28;20418;-46
2023/04/11 07:29:17;;;;;;;28.38;4.15;;;;;;;15.65;80.74;101109.81;5070469;28;20111;-47
2023/04/11 07:31:43;;;;;;;26.35;3.65;;;;;;;15.41;79.42;101119.41;5069788;28;20116;-47
2023/04/11 07:34:09;;;;;;;35.08;4.47;;;;;;;14.60;82.83;101118.34;5057639;28;20029;-48
2023/04/11 07:36:34;;;;;;;34.17;3.80;;;;;;;14.43;87.21;101125.13;5058575;28;20100;-50
2023/04/11 07:39:00;;;;;;;26.42;3.28;;;;;;;14.20;86.29;101128.94;5070104;28;20711;-48
2023/04/11 07:41:25;;;;;;;25.20;3.60;;;;;;;14.08;88.35;101121.56;5063663;28;20036;-49
2023/04/11 07:43:51;;;;;;;38.05;4.75;;;;;;;14.38;87.02;101127.59;5061390;28;20031;-48
2023/04/11 07:46:16;;;;;;;35.75;3.80;;;;;;;14.90;84.72;101131.56;5069372;28;20047;-51
2023/04/11 07:48:42;;;;;;;30.38;3.55;;;;;;;15.22;82.75;101140.84;5069734;28;20074;-49
2023/04/11 07:51:07;;;;;;;27.40;3.10;;;;;;;15.22;81.35;101132.72;5065857;28;20041;-47
2023/04/11 07:53:33;;;;;;;24.98;3.65;;;;;;;15.72;81.09;101146.78;5070378;28;20044;-49
2023/04/11 07:55:58;;;;;;;22.02;3.47;;;;;;;16.31;76.16;101139.63;5069071;28;20021;-50
2023/04/11 07:58:24;;;;;;;28.40;3.90;;;;;;;16.56;74.90;101152.50;5068784;28;20530;-47
2023/04/11 08:00:49;;;;;;;27.52;3.30;;;;;;;17.04;71.87;101144.81;5069480;28;20036;-49
2023/04/11 08:03:16;;;;;;;28.70;3.58;;;;;;;16.84;71.30;101165.81;5070109;28;20392;-49
2023/04/11 08:05:41;;;;;;;21.90;3.58;;;;;;;16.58;69.89;101155.84;5069072;28;20032;-51
2023/04/11 08:08:06;;;;;;;26.40;3.90;;;;;;;15.68;71.42;101160.94;5066717;28;20055;-47
2023/04/11 08:10:32;;;;;;;18.75;3.00;;;;;;;15.24;73.62;101165.88;5065885;28;20128;-48
2023/04/11 08:12:58;;;;;;;28.90;3.15;;;;;;;15.08;75.03;101161.66;5066412;28;20025;-47
2023/04/11 08:15:24;;;;;;;27.38;3.33;;;;;;;14.24;80.66;101167.25;5063610;28;20115;-50
2023/04/11 08:17:50;;;;;;;25.73;3.35;;;;;;;13.70;84.00;101173.31;5051900;28;20598;-48
2023/04/11 08:20:16;;;;;;;27.48;3.53;;;;;;;13.84;88.24;101184.03;5062891;28;20078;-47
2023/04/11 08:22:43;;;;;;;20.13;3.15;;;;;;;14.42;84.30;101180.28;5070042;28;20476;-51
2023/04/11 08:25:10;;;;;;;23.60;2.60;;;;;;;15.52;77.62;101173.03;5073889;28;20430;-48
2023/04/11 08:27:36;;;;;;;23.43;2.33;;;;;;;15.83;73.82;101186.03;5072028;28;20028;-49
2023/04/11 08:30:02;;;;;;;16.80;2.90;;;;;;;16.56;72.41;101190.53;5075436;28;20115;-50
2023/04/11 08:32:28;;;;;;;16.38;2.50;;;;;;;16.54;69.84;101198.09;5075433;28;20699;-52
2023/04/11 08:34:53;;;;;;;17.90;2.63;;;;;;;17.12;68.82;101189.97;5074840;28;20048;-48
2023/04/11 08:37:18;;;;;;;26.77;3.63;;;;;;;17.13;68.54;101193.50;5063949;28;20033;-48
2023/04/11 08:39:44;;;;;;;21.90;2.72;;;;;;;17.10;67.20;101192.06;5054785;28;20466;-49
2023/04/11 08:42:27;;;;;;;16.25;2.40;;;;;;;17.16;63.96;101198.50;5054353;28;20040;-49
2023/04/11 08:44:57;;;;;;;15.95;3.25;;;;;;;17.23;64.27;101208.31;5054539;28;20032;-49
2023/04/11 08:47:22;;;;;;;21.50;2.90;;;;;;;17.12;62.50;101195.41;5054468;28;20029;-47
2023/04/11 08:49:49;;;;;;;17.60;3.15;;;;;;;17.19;65.67;101201.63;5054763;28;20033;-47
2023/04/11 08:52:15;;;;;;;15.32;2.53;;;;;;;17.10;63.97;101192.88;5054968;28;20043;-49
2023/04/11 08:54:41;;;;;;;14.52;2.75;;;;;;;16.93;64.11;101196.28;5054589;28;20052;-53
2023/04/11 08:57:06;;;;;;;14.65;2.20;;;;;;;17.13;65.04;101194.34;5055128;28;20166;-49
2023/04/11 08:59:32;;;;;;;17.10;2.40;;;;;;;16.95;65.89;101200.47;5053234;28;20039;-49
2023/04/11 09:02:10;;;;;;;16.35;2.45;;;;;;;17.44;64.19;101204.41;5054492;28;20106;-49
2023/04/11 09:04:42;;;;;;;17.73;2.72;;;;;;;17.43;62.81;101199.19;5054731;28;20029;-49
2023/04/11 09:07:08;;;;;;;18.77;3.08;;;;;;;16.99;63.46;101195.47;5054700;28;20349;-48
2023/04/11 09:09:35;;;;;;;28.05;4.22;;;;;;;17.84;65.77;101197.91;5054318;28;20021;-48
2023/04/11 09:12:02;;;;;;;20.40;2.63;;;;;;;18.28;60.30;101204.22;5053952;28;20021;-48
2023/04/11 09:14:28;;;;;;;18.30;2.83;;;;;;;18.60;60.30;101194.03;5054443;28;20021;-50
2023/04/11 09:16:59;;;;;;;26.42;3.20;;;;;;;18.84;61.72;101198.59;5053976;28;20033;-48
2023/04/11 09:19:27;;;;;;;20.92;2.95;;;;;;;18.11;59.54;101207.50;5054612;28;20111;-49
2023/04/11 09:21:53;;;;;;;17.60;2.83;;;;;;;18.02;60.86;101200.69;5053989;28;20071;-47
2023/04/11 09:24:19;;;;;;;18.58;2.53;;;;;;;18.60;61.58;101188.59;5052803;28;20515;-47
2023/04/11 09:26:44;;;;;;;23.17;3.08;;;;;;;18.73;57.96;101212.16;5052413;28;20029;-48
2023/04/11 09:29:09;;;;;;;21.13;3.17;;;;;;;18.05;58.87;101216.56;5054024;28;20589;-48
2023/04/11 09:31:41;;;;;;;13.93;2.40;;;;;;;18.45;58.20;101207.19;5054162;28;20056;-48
2023/04/11 09:34:06;;;;;;;18.23;2.67;;;;;;;18.62;58.38;101217.28;5052609;28;20029;-48
2023/04/11 09:36:31;;;;;;;16.40;2.65;;;;;;;18.88;57.88;101219.97;5053954;28;20059;-49
2023/04/11 09:38:58;;;;;;;17.70;2.42;;;;;;;18.69;57.73;101211.75;5052006;28;20029;-47
2023/04/11 09:41:33;;;;;;;22.15;3.28;;;;;;;18.53;57.61;101201.44;5053621;28;20094;-49
2023/04/11 09:43:59;;;;;;;16.33;2.10;;;;;;;17.51;57.51;101204.41;5054194;28;20033;-48
2023/04/11 09:46:25;;;;;;;15.27;2.83;;;;;;;16.58;60.77;101221.06;5053987;28;20108;-51
2023/04/11 09:48:52;;;;;;;17.33;2.35;;;;;;;16.08;63.26;101220.69;5053635;28;20457;-49
2023/04/11 09:51:18;;;;;;;20.13;2.63;;;;;;;16.60;64.25;101218.97;5053571;28;20719;-50
2023/04/11 09:53:44;;;;;;;21.38;3.20;;;;;;;16.67;60.48;101211.63;5053174;28;20091;-47
2023/04/11 09:56:10;;;;;;;19.05;2.67;;;;;;;15.70;62.98;101213.16;5053555;28;20052;-50
2023/04/11 09:58:37;;;;;;;15.70;2.15;;;;;;;16.55;62.65;101226.91;5053455;28;20064;-49
2023/04/11 10:01:07;;;;;;;15.95;2.60;;;;;;;16.85;59.08;101222.69;5053117;28;20021;-50
2023/04/11 10:03:37;;;;;;;16.80;2.22;;;;;;;16.43;60.50;101219.41;5068668;28;20052;-51
2023/04/11 10:06:13;;;;;;;24.58;3.10;;;;;;;16.96;59.08;101225.81;5052039;28;20473;-47
2023/04/11 10:08:40;;;;;;;16.10;2.67;;;;;;;17.15;60.78;101237.66;5053454;28;20467;-47
2023/04/11 10:11:07;;;;;;;20.45;3.10;;;;;;;17.45;62.10;101221.56;5052173;28;21102;-48
2023/04/11 10:13:44;;;;;;;20.67;2.63;;;;;;;17.50;60.33;101229.91;5053087;28;20033;-49
2023/04/11 10:16:17;;;;;;;15.38;2.67;;;;;;;17.74;60.37;101223.69;5053714;28;20044;-51
2023/04/11 10:18:51;;;;;;;20.10;3.47;;;;;;;16.72;62.73;101228.13;5053459;28;20100;-50
2023/04/11 10:21:26;;;;;;;19.85;3.00;;;;;;;16.93;64.37;101228.91;5052208;28;20031;-50
2023/04/11 10:24:14;;;;;;;26.63;3.60;;;;;;;16.42;66.08;101222.34;5054425;28;20084;-51
2023/04/11 10:26:58;;;;;;;18.52;2.95;;;;;;;16.06;66.29;101220.06;5053888;28;20111;-48
2023/04/11 10:29:33;;;;;;;15.90;2.22;;;;;;;16.32;63.60;101225.47;5068208;28;20149;-51
2023/04/11 10:32:09;;;;;;;29.67;3.03;;;;;;;16.29;64.73;101227.78;5064157;28;20036;-47
2023/04/11 10:34:37;;;;;;;16.35;2.47;;;;;;;15.87;62.33;101227.97;5070535;28;20066;-48
2023/04/11 10:37:03;;;;;;;;;;;;;;;16.06;64.25;101217.34;5069392;28;20029;-49
2023/04/11 10:39:46;;;;;;;22.45;2.63;;;;;;;15.54;66.02;101220.63;5070751;28;20316;-46
2023/04/11 10:42:30;;;;;;;20.35;2.85;;;;;;;16.21;67.39;101210.66;5069171;28;20087;-49
2023/04/11 10:45:21;;;;;;;23.45;2.85;;;;;;;16.94;67.72;101223.28;5057310;28;20064;-48
2023/04/11 10:47:55;;;;;;;20.08;2.55;;;;;;;17.08;64.22;101214.00;5052848;28;20044;-47
2023/04/11 10:50:27;;;;;;;15.95;2.55;;;;;;;16.48;63.48;101221.47;5063517;28;20070;-50
2023/04/11 10:52:59;;;;;;;18.05;2.53;;;;;;;15.74;63.05;101206.25;5058052;28;20033;-48
2023/04/11 10:55:27;;;;;;;19.75;2.92;;;;;;;15.87;63.83;101211.69;5064717;28;20052;-47
2023/04/11 10:58:01;;;;;;;19.13;2.47;;;;;;;15.91;64.11;101204.81;5066938;28;20025;-49
2023/04/11 11:00:27;;;;;;;21.13;2.35;;;;;;;15.82;64.26;101211.50;5064951;28;20497;-49
2023/04/11 11:02:52;;;;;;;18.30;2.58;;;;;;;15.51;62.35;101226.47;5068167;28;20054;-47
2023/04/11 11:05:19;;;;;;;16.75;2.00;;;;;;;15.35;61.00;101226.84;5064687;28;20056;-49
2023/04/11 11:07:46;;;;;;;16.45;2.42;;;;;;;15.70;62.20;101222.13;5067040;28;20128;-48
2023/04/11 11:10:12;;;;;;;16.38;3.10;;;;;;;15.63;61.59;101232.09;5068574;28;20032;-48
2023/04/11 11:12:50;;;;;;;17.42;2.60;;;;;;;16.07;62.99;101219.88;5066064;28;20062;-49
2023/04/11 11:15:16;;;;;;;20.83;2.58;;;;;;;16.53;62.34;101218.13;5070155;28;20377;-49